sensor_id;sensor_type;location;lat;lon;timestamp;P1;durP1;ratioP1;P2;durP2;ratioP2
16262;SDS011;8239;48.594;8.598;2023-08-21T00:01:30;11.75;;;8.40;;
16262;SDS011;8239;48.594;8.598;2023-08-21T00:03:57;10.68;;;9.77;;
16262;SDS011;8239;48.594;8.598;2023-08-21T00:06:24;10.18;;;9.23;;
16262;SDS011;8239;48.594;8.598;2023-08-21T00:08:51;10.35;;;9.30;;
16262;SDS011;8239;48.594;8.598;2023-08-21T00:11:19;11.32;;;10.32;;
16262;SDS011;8239;48.594;8.598;2023-08-21T00:13:46;11.80;;;10.40;;
16262;SDS011;8239;48.594;8.598;2023-08-21T00:16:14;10.65;;;9.57;;
16262;SDS011;8239;48.594;8.598;2023-08-21T00:18:42;10.07;;;9.10;;
16262;SDS011;8239;48.594;8.598;2023-08-21T00:21:09;10.35;;;8.93;;
16262;SDS011;8239;48.594;8.598;2023-08-21T00:23:36;10.35;;;9.45;;
16262;SDS011;8239;48.594;8.598;2023-08-21T00:26:03;10.02;;;8.88;;
16262;SDS011;8239;48.594;8.598;2023-08-21T00:28:31;10.00;;;8.93;;
16262;SDS011;8239;48.594;8.598;2023-08-21T00:31:00;9.88;;;8.98;;
16262;SDS011;8239;48.594;8.598;2023-08-21T00:33:27;10.95;;;9.88;;
16262;SDS011;8239;48.594;8.598;2023-08-21T00:35:54;10.25;;;9.25;;
16262;SDS011;8239;48.594;8.598;2023-08-21T00:38:21;9.45;;;8.48;;
16262;SDS011;8239;48.594;8.598;2023-08-21T00:40:49;10.07;;;9.10;;
16262;SDS011;8239;48.594;8.598;2023-08-21T00:43:16;10.98;;;9.88;;
16262;SDS011;8239;48.594;8.598;2023-08-21T00:45:45;10.38;;;9.32;;
16262;SDS011;8239;48.594;8.598;2023-08-21T00:48:13;9.52;;;8.52;;
16262;SDS011;8239;48.594;8.598;2023-08-21T00:50:41;10.00;;;9.10;;
16262;SDS011;8239;48.594;8.598;2023-08-21T00:53:09;10.35;;;9.18;;
16262;SDS011;8239;48.594;8.598;2023-08-21T00:55:37;11.48;;;10.35;;
16262;SDS011;8239;48.594;8.598;2023-08-21T00:58:04;11.45;;;10.27;;
16262;SDS011;8239;48.594;8.598;2023-08-21T01:00:32;11.27;;;10.18;;
16262;SDS011;8239;48.594;8.598;2023-08-21T01:03:02;11.52;;;10.43;;
16262;SDS011;8239;48.594;8.598;2023-08-21T01:05:29;10.32;;;9.43;;
16262;SDS011;8239;48.594;8.598;2023-08-21T01:07:57;9.30;;;8.43;;
16262;SDS011;8239;48.594;8.598;2023-08-21T01:10:30;9.52;;;8.68;;
16262;SDS011;8239;48.594;8.598;2023-08-21T01:13:19;9.07;;;8.23;;
16262;SDS011;8239;48.594;8.598;2023-08-21T01:15:50;9.07;;;8.18;;
16262;SDS011;8239;48.594;8.598;2023-08-21T01:18:20;9.43;;;7.97;;
16262;SDS011;8239;48.594;8.598;2023-08-21T01:20:47;9.18;;;8.38;;
16262;SDS011;8239;48.594;8.598;2023-08-21T01:23:28;9.27;;;8.40;;
16262;SDS011;8239;48.594;8.598;2023-08-21T01:25:56;9.52;;;8.50;;
16262;SDS011;8239;48.594;8.598;2023-08-21T01:28:23;9.48;;;8.48;;
16262;SDS011;8239;48.594;8.598;2023-08-21T01:30:50;8.80;;;8.00;;
16262;SDS011;8239;48.594;8.598;2023-08-21T01:33:21;9.20;;;8.20;;
16262;SDS011;8239;48.594;8.598;2023-08-21T01:35:49;9.05;;;8.25;;
16262;SDS011;8239;48.594;8.598;2023-08-21T01:38:16;8.98;;;8.15;;
16262;SDS011;8239;48.594;8.598;2023-08-21T01:40:46;9.23;;;8.32;;
16262;SDS011;8239;48.594;8.598;2023-08-21T01:43:13;9.05;;;8.15;;
16262;SDS011;8239;48.594;8.598;2023-08-21T01:45:40;8.80;;;7.78;;
16262;SDS011;8239;48.594;8.598;2023-08-21T01:48:07;9.15;;;8.35;;
16262;SDS011;8239;48.594;8.598;2023-08-21T01:50:34;9.23;;;8.18;;
16262;SDS011;8239;48.594;8.598;2023-08-21T01:53:01;9.07;;;8.20;;
16262;SDS011;8239;48.594;8.598;2023-08-21T01:55:28;9.13;;;8.05;;
16262;SDS011;8239;48.594;8.598;2023-08-21T01:57:56;9.13;;;8.23;;
16262;SDS011;8239;48.594;8.598;2023-08-21T02:00:23;9.23;;;8.32;;
16262;SDS011;8239;48.594;8.598;2023-08-21T02:02:53;9.02;;;8.13;;
16262;SDS011;8239;48.594;8.598;2023-08-21T02:05:20;8.88;;;8.07;;
16262;SDS011;8239;48.594;8.598;2023-08-21T02:07:47;9.25;;;8.25;;
16262;SDS011;8239;48.594;8.598;2023-08-21T02:10:14;9.20;;;8.38;;
16262;SDS011;8239;48.594;8.598;2023-08-21T02:12:41;9.05;;;8.13;;
16262;SDS011;8239;48.594;8.598;2023-08-21T02:15:09;9.23;;;8.40;;
16262;SDS011;8239;48.594;8.598;2023-08-21T02:17:36;9.57;;;8.40;;
16262;SDS011;8239;48.594;8.598;2023-08-21T02:20:04;9.25;;;8.10;;
16262;SDS011;8239;48.594;8.598;2023-08-21T02:22:31;9.27;;;8.07;;
16262;SDS011;8239;48.594;8.598;2023-08-21T02:24:58;9.57;;;8.68;;
16262;SDS011;8239;48.594;8.598;2023-08-21T02:27:25;9.30;;;8.20;;
16262;SDS011;8239;48.594;8.598;2023-08-21T02:29:52;9.07;;;8.20;;
16262;SDS011;8239;48.594;8.598;2023-08-21T02:32:20;9.05;;;8.23;;
16262;SDS011;8239;48.594;8.598;2023-08-21T02:34:47;9.45;;;8.52;;
16262;SDS011;8239;48.594;8.598;2023-08-21T02:37:14;10.38;;;8.75;;
16262;SDS011;8239;48.594;8.598;2023-08-21T02:39:41;9.88;;;8.27;;
16262;SDS011;8239;48.594;8.598;2023-08-21T02:42:08;9.98;;;8.70;;
16262;SDS011;8239;48.594;8.598;2023-08-21T02:44:35;9.55;;;8.52;;
16262;SDS011;8239;48.594;8.598;2023-08-21T02:47:02;11.27;;;9.20;;
16262;SDS011;8239;48.594;8.598;2023-08-21T02:49:30;9.68;;;8.73;;
16262;SDS011;8239;48.594;8.598;2023-08-21T02:51:57;9.75;;;8.80;;
16262;SDS011;8239;48.594;8.598;2023-08-21T02:54:24;10.18;;;8.95;;
16262;SDS011;8239;48.594;8.598;2023-08-21T02:56:51;9.40;;;8.60;;
16262;SDS011;8239;48.594;8.598;2023-08-21T02:59:18;9.43;;;8.50;;
16262;SDS011;8239;48.594;8.598;2023-08-21T03:01:45;10.13;;;9.10;;
16262;SDS011;8239;48.594;8.598;2023-08-21T03:04:11;9.65;;;8.40;;
16262;SDS011;8239;48.594;8.598;2023-08-21T03:06:40;9.43;;;8.52;;
16262;SDS011;8239;48.594;8.598;2023-08-21T03:09:07;9.30;;;8.15;;
16262;SDS011;8239;48.594;8.598;2023-08-21T03:11:34;10.57;;;9.43;;
16262;SDS011;8239;48.594;8.598;2023-08-21T03:14:01;9.63;;;8.73;;
16262;SDS011;8239;48.594;8.598;2023-08-21T03:16:28;9.93;;;9.02;;
16262;SDS011;8239;48.594;8.598;2023-08-21T03:18:56;9.73;;;8.73;;
16262;SDS011;8239;48.594;8.598;2023-08-21T03:21:24;10.32;;;8.43;;
16262;SDS011;8239;48.594;8.598;2023-08-21T03:23:54;9.50;;;8.50;;
16262;SDS011;8239;48.594;8.598;2023-08-21T03:26:22;9.38;;;8.43;;
16262;SDS011;8239;48.594;8.598;2023-08-21T03:28:49;9.35;;;8.35;;
16262;SDS011;8239;48.594;8.598;2023-08-21T03:31:15;10.15;;;8.27;;
16262;SDS011;8239;48.594;8.598;2023-08-21T03:33:42;10.65;;;8.65;;
16262;SDS011;8239;48.594;8.598;2023-08-21T03:36:09;10.20;;;9.20;;
16262;SDS011;8239;48.594;8.598;2023-08-21T03:38:36;11.60;;;9.25;;
16262;SDS011;8239;48.594;8.598;2023-08-21T03:41:04;9.63;;;8.73;;
16262;SDS011;8239;48.594;8.598;2023-08-21T03:43:31;9.65;;;8.77;;
16262;SDS011;8239;48.594;8.598;2023-08-21T03:45:58;9.95;;;9.00;;
16262;SDS011;8239;48.594;8.598;2023-08-21T03:48:25;10.45;;;9.20;;
16262;SDS011;8239;48.594;8.598;2023-08-21T03:50:52;10.07;;;8.65;;
16262;SDS011;8239;48.594;8.598;2023-08-21T03:53:19;9.25;;;8.45;;
16262;SDS011;8239;48.594;8.598;2023-08-21T03:55:46;10.50;;;8.77;;
16262;SDS011;8239;48.594;8.598;2023-08-21T03:58:14;9.98;;;8.95;;
16262;SDS011;8239;48.594;8.598;2023-08-21T04:00:41;9.68;;;8.77;;
16262;SDS011;8239;48.594;8.598;2023-08-21T04:03:08;10.38;;;9.10;;
16262;SDS011;8239;48.594;8.598;2023-08-21T04:05:35;11.27;;;8.80;;
16262;SDS011;8239;48.594;8.598;2023-08-21T04:08:03;9.68;;;8.75;;
16262;SDS011;8239;48.594;8.598;2023-08-21T04:10:30;10.63;;;9.40;;
16262;SDS011;8239;48.594;8.598;2023-08-21T04:12:57;10.10;;;8.90;;
16262;SDS011;8239;48.594;8.598;2023-08-21T04:15:26;10.02;;;9.00;;
16262;SDS011;8239;48.594;8.598;2023-08-21T04:17:53;10.20;;;9.20;;
16262;SDS011;8239;48.594;8.598;2023-08-21T04:20:20;10.13;;;9.00;;
16262;SDS011;8239;48.594;8.598;2023-08-21T04:22:47;11.75;;;9.23;;
16262;SDS011;8239;48.594;8.598;2023-08-21T04:25:14;9.93;;;8.93;;
16262;SDS011;8239;48.594;8.598;2023-08-21T04:27:41;10.25;;;9.20;;
16262;SDS011;8239;48.594;8.598;2023-08-21T04:30:08;10.40;;;9.50;;
16262;SDS011;8239;48.594;8.598;2023-08-21T04:32:37;10.60;;;9.60;;
16262;SDS011;8239;48.594;8.598;2023-08-21T04:35:05;11.88;;;9.25;;
16262;SDS011;8239;48.594;8.598;2023-08-21T04:37:33;10.63;;;9.35;;
16262;SDS011;8239;48.594;8.598;2023-08-21T04:40:00;11.65;;;9.23;;
16262;SDS011;8239;48.594;8.598;2023-08-21T04:42:27;11.57;;;9.20;;
16262;SDS011;8239;48.594;8.598;2023-08-21T04:44:54;9.52;;;8.70;;
16262;SDS011;8239;48.594;8.598;2023-08-21T04:47:22;9.98;;;8.98;;
16262;SDS011;8239;48.594;8.598;2023-08-21T04:49:52;9.60;;;8.80;;
16262;SDS011;8239;48.594;8.598;2023-08-21T04:52:20;10.13;;;9.02;;
16262;SDS011;8239;48.594;8.598;2023-08-21T04:54:47;9.98;;;8.98;;
16262;SDS011;8239;48.594;8.598;2023-08-21T04:57:15;9.77;;;8.80;;
16262;SDS011;8239;48.594;8.598;2023-08-21T04:59:42;9.43;;;8.23;;
16262;SDS011;8239;48.594;8.598;2023-08-21T05:02:09;9.40;;;8.50;;
16262;SDS011;8239;48.594;8.598;2023-08-21T05:04:36;10.02;;;9.00;;
16262;SDS011;8239;48.594;8.598;2023-08-21T05:07:05;9.18;;;8.05;;
16262;SDS011;8239;48.594;8.598;2023-08-21T05:09:32;9.57;;;8.55;;
16262;SDS011;8239;48.594;8.598;2023-08-21T05:11:59;9.15;;;8.25;;
16262;SDS011;8239;48.594;8.598;2023-08-21T05:14:26;9.63;;;8.05;;
16262;SDS011;8239;48.594;8.598;2023-08-21T05:16:53;8.82;;;7.93;;
16262;SDS011;8239;48.594;8.598;2023-08-21T05:19:20;9.27;;;8.32;;
16262;SDS011;8239;48.594;8.598;2023-08-21T05:21:47;9.05;;;7.95;;
16262;SDS011;8239;48.594;8.598;2023-08-21T05:24:15;8.80;;;7.97;;
16262;SDS011;8239;48.594;8.598;2023-08-21T05:26:42;8.38;;;7.57;;
16262;SDS011;8239;48.594;8.598;2023-08-21T05:29:09;8.25;;;7.53;;
16262;SDS011;8239;48.594;8.598;2023-08-21T05:31:36;9.07;;;8.27;;
16262;SDS011;8239;48.594;8.598;2023-08-21T05:34:03;8.30;;;7.60;;
16262;SDS011;8239;48.594;8.598;2023-08-21T05:36:30;8.85;;;8.00;;
16262;SDS011;8239;48.594;8.598;2023-08-21T05:38:57;9.25;;;7.93;;
16262;SDS011;8239;48.594;8.598;2023-08-21T05:41:25;8.30;;;7.13;;
16262;SDS011;8239;48.594;8.598;2023-08-21T05:43:52;8.95;;;7.03;;
16262;SDS011;8239;48.594;8.598;2023-08-21T05:46:19;9.70;;;7.65;;
16262;SDS011;8239;48.594;8.598;2023-08-21T05:48:46;9.65;;;7.30;;
16262;SDS011;8239;48.594;8.598;2023-08-21T05:51:13;10.93;;;7.00;;
16262;SDS011;8239;48.594;8.598;2023-08-21T05:53:40;15.18;;;7.80;;
16262;SDS011;8239;48.594;8.598;2023-08-21T05:56:06;13.98;;;7.68;;
16262;SDS011;8239;48.594;8.598;2023-08-21T05:58:35;12.70;;;6.65;;
16262;SDS011;8239;48.594;8.598;2023-08-21T06:01:02;8.05;;;6.60;;
16262;SDS011;8239;48.594;8.598;2023-08-21T06:03:29;8.00;;;6.88;;
16262;SDS011;8239;48.594;8.598;2023-08-21T06:05:56;8.50;;;6.70;;
16262;SDS011;8239;48.594;8.598;2023-08-21T06:08:22;8.13;;;7.28;;
16262;SDS011;8239;48.594;8.598;2023-08-21T06:10:52;9.00;;;6.72;;
16262;SDS011;8239;48.594;8.598;2023-08-21T06:13:19;8.48;;;6.75;;
16262;SDS011;8239;48.594;8.598;2023-08-21T06:15:48;7.47;;;6.80;;
16262;SDS011;8239;48.594;8.598;2023-08-21T06:18:15;7.80;;;6.80;;
16262;SDS011;8239;48.594;8.598;2023-08-21T06:20:42;7.13;;;6.18;;
16262;SDS011;8239;48.594;8.598;2023-08-21T06:23:10;6.95;;;6.25;;
16262;SDS011;8239;48.594;8.598;2023-08-21T06:25:37;6.68;;;5.93;;
16262;SDS011;8239;48.594;8.598;2023-08-21T06:28:04;6.60;;;6.00;;
16262;SDS011;8239;48.594;8.598;2023-08-21T06:30:31;6.30;;;5.70;;
16262;SDS011;8239;48.594;8.598;2023-08-21T06:32:59;5.97;;;5.45;;
16262;SDS011;8239;48.594;8.598;2023-08-21T06:35:26;5.78;;;5.30;;
16262;SDS011;8239;48.594;8.598;2023-08-21T06:37:53;5.80;;;5.30;;
16262;SDS011;8239;48.594;8.598;2023-08-21T06:40:20;6.07;;;5.47;;
16262;SDS011;8239;48.594;8.598;2023-08-21T06:42:47;5.80;;;5.20;;
16262;SDS011;8239;48.594;8.598;2023-08-21T06:45:16;5.57;;;4.93;;
16262;SDS011;8239;48.594;8.598;2023-08-21T06:47:43;5.25;;;4.82;;
16262;SDS011;8239;48.594;8.598;2023-08-21T06:50:11;5.82;;;5.28;;
16262;SDS011;8239;48.594;8.598;2023-08-21T06:52:38;7.93;;;5.20;;
16262;SDS011;8239;48.594;8.598;2023-08-21T06:55:06;5.70;;;5.20;;
16262;SDS011;8239;48.594;8.598;2023-08-21T06:57:33;6.85;;;5.15;;
16262;SDS011;8239;48.594;8.598;2023-08-21T07:00:02;6.68;;;5.13;;
16262;SDS011;8239;48.594;8.598;2023-08-21T07:02:30;6.40;;;5.32;;
16262;SDS011;8239;48.594;8.598;2023-08-21T07:04:57;6.28;;;4.90;;
16262;SDS011;8239;48.594;8.598;2023-08-21T07:07:25;6.97;;;4.95;;
16262;SDS011;8239;48.594;8.598;2023-08-21T07:09:52;5.72;;;5.22;;
16262;SDS011;8239;48.594;8.598;2023-08-21T07:12:19;5.80;;;5.15;;
16262;SDS011;8239;48.594;8.598;2023-08-21T07:14:47;5.57;;;5.07;;
16262;SDS011;8239;48.594;8.598;2023-08-21T07:17:14;6.72;;;5.38;;
16262;SDS011;8239;48.594;8.598;2023-08-21T07:19:41;5.90;;;5.43;;
16262;SDS011;8239;48.594;8.598;2023-08-21T07:22:08;5.72;;;5.18;;
16262;SDS011;8239;48.594;8.598;2023-08-21T07:24:36;6.18;;;5.53;;
16262;SDS011;8239;48.594;8.598;2023-08-21T07:27:03;5.80;;;5.20;;
16262;SDS011;8239;48.594;8.598;2023-08-21T07:29:30;5.70;;;5.20;;
16262;SDS011;8239;48.594;8.598;2023-08-21T07:31:57;6.25;;;5.63;;
16262;SDS011;8239;48.594;8.598;2023-08-21T07:34:24;5.53;;;5.10;;
16262;SDS011;8239;48.594;8.598;2023-08-21T07:36:51;7.22;;;5.40;;
16262;SDS011;8239;48.594;8.598;2023-08-21T07:39:18;6.80;;;5.57;;
16262;SDS011;8239;48.594;8.598;2023-08-21T07:41:47;6.30;;;5.70;;
16262;SDS011;8239;48.594;8.598;2023-08-21T07:44:13;5.80;;;5.40;;
16262;SDS011;8239;48.594;8.598;2023-08-21T07:46:40;5.90;;;5.40;;
16262;SDS011;8239;48.594;8.598;2023-08-21T07:49:07;7.20;;;5.53;;
16262;SDS011;8239;48.594;8.598;2023-08-21T07:51:34;5.97;;;5.47;;
16262;SDS011;8239;48.594;8.598;2023-08-21T07:54:01;5.85;;;5.30;;
16262;SDS011;8239;48.594;8.598;2023-08-21T07:56:28;6.00;;;5.50;;
16262;SDS011;8239;48.594;8.598;2023-08-21T07:58:56;5.72;;;5.25;;
16262;SDS011;8239;48.594;8.598;2023-08-21T08:01:23;5.85;;;5.45;;
16262;SDS011;8239;48.594;8.598;2023-08-21T08:03:50;6.28;;;5.70;;
16262;SDS011;8239;48.594;8.598;2023-08-21T08:06:17;6.13;;;5.72;;
16262;SDS011;8239;48.594;8.598;2023-08-21T08:08:44;6.10;;;5.60;;
16262;SDS011;8239;48.594;8.598;2023-08-21T08:11:11;5.72;;;5.22;;
16262;SDS011;8239;48.594;8.598;2023-08-21T08:13:38;5.88;;;5.38;;
16262;SDS011;8239;48.594;8.598;2023-08-21T08:16:06;5.63;;;5.22;;
16262;SDS011;8239;48.594;8.598;2023-08-21T08:18:33;6.10;;;5.60;;
16262;SDS011;8239;48.594;8.598;2023-08-21T08:21:00;5.95;;;5.45;;
16262;SDS011;8239;48.594;8.598;2023-08-21T08:23:27;5.88;;;5.32;;
16262;SDS011;8239;48.594;8.598;2023-08-21T08:25:54;5.82;;;5.32;;
16262;SDS011;8239;48.594;8.598;2023-08-21T08:28:22;5.60;;;5.10;;
16262;SDS011;8239;48.594;8.598;2023-08-21T08:30:49;5.80;;;5.30;;
16262;SDS011;8239;48.594;8.598;2023-08-21T08:33:18;5.53;;;5.00;;
16262;SDS011;8239;48.594;8.598;2023-08-21T08:35:45;6.47;;;5.50;;
16262;SDS011;8239;48.594;8.598;2023-08-21T08:38:12;5.55;;;5.05;;
16262;SDS011;8239;48.594;8.598;2023-08-21T08:40:42;5.03;;;4.60;;
16262;SDS011;8239;48.594;8.598;2023-08-21T08:43:11;6.05;;;5.53;;
16262;SDS011;8239;48.594;8.598;2023-08-21T08:45:38;5.68;;;5.18;;
16262;SDS011;8239;48.594;8.598;2023-08-21T08:48:07;6.03;;;5.13;;
16262;SDS011;8239;48.594;8.598;2023-08-21T08:50:35;5.38;;;4.97;;
16262;SDS011;8239;48.594;8.598;2023-08-21T08:53:04;5.55;;;4.97;;
16262;SDS011;8239;48.594;8.598;2023-08-21T08:55:33;5.82;;;5.35;;
16262;SDS011;8239;48.594;8.598;2023-08-21T08:58:00;6.03;;;5.45;;
16262;SDS011;8239;48.594;8.598;2023-08-21T09:00:27;5.97;;;5.35;;
16262;SDS011;8239;48.594;8.598;2023-08-21T09:02:55;5.50;;;5.00;;
16262;SDS011;8239;48.594;8.598;2023-08-21T09:05:22;6.13;;;5.45;;
16262;SDS011;8239;48.594;8.598;2023-08-21T09:08:03;5.60;;;5.13;;
16262;SDS011;8239;48.594;8.598;2023-08-21T09:10:35;6.32;;;5.35;;
16262;SDS011;8239;48.594;8.598;2023-08-21T09:13:08;5.47;;;5.03;;
16262;SDS011;8239;48.594;8.598;2023-08-21T09:15:35;4.97;;;4.68;;
16262;SDS011;8239;48.594;8.598;2023-08-21T09:18:03;5.70;;;5.10;;
16262;SDS011;8239;48.594;8.598;2023-08-21T09:20:34;5.68;;;4.97;;
16262;SDS011;8239;48.594;8.598;2023-08-21T09:23:05;5.50;;;5.10;;
16262;SDS011;8239;48.594;8.598;2023-08-21T09:25:36;5.18;;;4.80;;
16262;SDS011;8239;48.594;8.598;2023-08-21T09:28:05;5.30;;;4.90;;
16262;SDS011;8239;48.594;8.598;2023-08-21T09:30:45;5.35;;;4.88;;
16262;SDS011;8239;48.594;8.598;2023-08-21T09:33:13;5.00;;;4.70;;
16262;SDS011;8239;48.594;8.598;2023-08-21T09:35:43;5.45;;;4.95;;
16262;SDS011;8239;48.594;8.598;2023-08-21T09:38:12;4.82;;;4.50;;
16262;SDS011;8239;48.594;8.598;2023-08-21T09:40:39;5.88;;;5.47;;
16262;SDS011;8239;48.594;8.598;2023-08-21T09:43:07;5.63;;;5.20;;
16262;SDS011;8239;48.594;8.598;2023-08-21T09:45:36;5.43;;;5.03;;
16262;SDS011;8239;48.594;8.598;2023-08-21T09:48:03;5.40;;;5.00;;
16262;SDS011;8239;48.594;8.598;2023-08-21T09:50:31;6.32;;;5.28;;
16262;SDS011;8239;48.594;8.598;2023-08-21T09:52:59;5.80;;;5.30;;
16262;SDS011;8239;48.594;8.598;2023-08-21T09:55:30;5.50;;;5.10;;
16262;SDS011;8239;48.594;8.598;2023-08-21T09:57:59;5.68;;;5.20;;
16262;SDS011;8239;48.594;8.598;2023-08-21T10:00:28;5.53;;;4.78;;
16262;SDS011;8239;48.594;8.598;2023-08-21T10:02:58;5.82;;;5.43;;
16262;SDS011;8239;48.594;8.598;2023-08-21T10:05:28;6.32;;;5.70;;
16262;SDS011;8239;48.594;8.598;2023-08-21T10:07:56;6.00;;;5.40;;
16262;SDS011;8239;48.594;8.598;2023-08-21T10:10:26;5.88;;;5.40;;
16262;SDS011;8239;48.594;8.598;2023-08-21T10:12:57;8.48;;;5.88;;
16262;SDS011;8239;48.594;8.598;2023-08-21T10:15:24;6.32;;;5.72;;
16262;SDS011;8239;48.594;8.598;2023-08-21T10:17:52;6.00;;;5.53;;
16262;SDS011;8239;48.594;8.598;2023-08-21T10:20:20;5.95;;;5.53;;
16262;SDS011;8239;48.594;8.598;2023-08-21T10:22:49;5.53;;;5.05;;
16262;SDS011;8239;48.594;8.598;2023-08-21T10:25:19;6.28;;;5.68;;
16262;SDS011;8239;48.594;8.598;2023-08-21T10:27:51;5.75;;;5.35;;
16262;SDS011;8239;48.594;8.598;2023-08-21T10:30:22;5.82;;;5.43;;
16262;SDS011;8239;48.594;8.598;2023-08-21T10:32:51;6.93;;;5.57;;
16262;SDS011;8239;48.594;8.598;2023-08-21T10:35:19;5.53;;;5.10;;
16262;SDS011;8239;48.594;8.598;2023-08-21T10:40:40;5.88;;;5.38;;
16262;SDS011;8239;48.594;8.598;2023-08-21T10:43:38;5.78;;;5.25;;
16262;SDS011;8239;48.594;8.598;2023-08-21T10:46:06;6.07;;;5.57;;
16262;SDS011;8239;48.594;8.598;2023-08-21T10:48:34;6.72;;;6.10;;
16262;SDS011;8239;48.594;8.598;2023-08-21T10:51:01;5.72;;;5.20;;
16262;SDS011;8239;48.594;8.598;2023-08-21T10:53:30;6.18;;;5.63;;
16262;SDS011;8239;48.594;8.598;2023-08-21T10:56:00;5.88;;;5.38;;
16262;SDS011;8239;48.594;8.598;2023-08-21T10:58:28;6.80;;;6.03;;
16262;SDS011;8239;48.594;8.598;2023-08-21T11:01:01;5.88;;;5.40;;
16262;SDS011;8239;48.594;8.598;2023-08-21T11:03:28;5.88;;;5.30;;
16262;SDS011;8239;48.594;8.598;2023-08-21T11:06:02;6.35;;;5.68;;
16262;SDS011;8239;48.594;8.598;2023-08-21T11:08:29;5.85;;;5.30;;
16262;SDS011;8239;48.594;8.598;2023-08-21T11:10:58;6.38;;;5.45;;
16262;SDS011;8239;48.594;8.598;2023-08-21T11:13:26;6.28;;;5.68;;
16262;SDS011;8239;48.594;8.598;2023-08-21T11:15:59;6.60;;;6.00;;
16262;SDS011;8239;48.594;8.598;2023-08-21T11:18:31;8.00;;;6.07;;
16262;SDS011;8239;48.594;8.598;2023-08-21T11:21:03;6.05;;;5.55;;
16262;SDS011;8239;48.594;8.598;2023-08-21T11:23:32;5.68;;;5.28;;
16262;SDS011;8239;48.594;8.598;2023-08-21T11:26:00;7.32;;;5.93;;
16262;SDS011;8239;48.594;8.598;2023-08-21T11:28:28;5.82;;;5.25;;
16262;SDS011;8239;48.594;8.598;2023-08-21T11:30:55;6.03;;;5.43;;
16262;SDS011;8239;48.594;8.598;2023-08-21T11:33:23;6.05;;;5.55;;
16262;SDS011;8239;48.594;8.598;2023-08-21T11:35:51;5.90;;;5.50;;
16262;SDS011;8239;48.594;8.598;2023-08-21T11:38:19;6.45;;;5.60;;
16262;SDS011;8239;48.594;8.598;2023-08-21T11:40:54;5.80;;;5.30;;
16262;SDS011;8239;48.594;8.598;2023-08-21T11:43:22;5.97;;;5.35;;
16262;SDS011;8239;48.594;8.598;2023-08-21T11:46:01;5.78;;;5.28;;
16262;SDS011;8239;48.594;8.598;2023-08-21T11:48:28;7.28;;;5.38;;
16262;SDS011;8239;48.594;8.598;2023-08-21T11:50:56;6.25;;;5.55;;
16262;SDS011;8239;48.594;8.598;2023-08-21T11:53:33;5.80;;;5.30;;
16262;SDS011;8239;48.594;8.598;2023-08-21T11:56:02;7.43;;;5.43;;
16262;SDS011;8239;48.594;8.598;2023-08-21T11:58:29;6.53;;;5.50;;
16262;SDS011;8239;48.594;8.598;2023-08-21T12:01:01;6.10;;;5.57;;
16262;SDS011;8239;48.594;8.598;2023-08-21T12:03:29;6.20;;;5.60;;
16262;SDS011;8239;48.594;8.598;2023-08-21T12:05:59;6.03;;;5.47;;
16262;SDS011;8239;48.594;8.598;2023-08-21T12:08:26;7.57;;;6.10;;
16262;SDS011;8239;48.594;8.598;2023-08-21T12:10:53;8.75;;;6.18;;
16262;SDS011;8239;48.594;8.598;2023-08-21T12:13:19;7.75;;;6.18;;
16262;SDS011;8239;48.594;8.598;2023-08-21T12:15:46;6.57;;;5.93;;
16262;SDS011;8239;48.594;8.598;2023-08-21T12:18:13;6.35;;;5.85;;
16262;SDS011;8239;48.594;8.598;2023-08-21T12:20:40;6.32;;;5.72;;
16262;SDS011;8239;48.594;8.598;2023-08-21T12:23:08;6.72;;;6.10;;
16262;SDS011;8239;48.594;8.598;2023-08-21T12:25:36;6.28;;;5.70;;
16262;SDS011;8239;48.594;8.598;2023-08-21T12:28:03;6.45;;;5.85;;
16262;SDS011;8239;48.594;8.598;2023-08-21T12:30:31;9.10;;;6.25;;
16262;SDS011;8239;48.594;8.598;2023-08-21T12:32:58;6.22;;;5.72;;
16262;SDS011;8239;48.594;8.598;2023-08-21T12:35:25;5.90;;;5.40;;
16262;SDS011;8239;48.594;8.598;2023-08-21T12:37:55;6.30;;;5.70;;
16262;SDS011;8239;48.594;8.598;2023-08-21T12:40:24;6.00;;;5.60;;
16262;SDS011;8239;48.594;8.598;2023-08-21T12:42:51;6.38;;;5.45;;
16262;SDS011;8239;48.594;8.598;2023-08-21T12:45:18;6.13;;;5.13;;
16262;SDS011;8239;48.594;8.598;2023-08-21T12:47:45;6.15;;;5.60;;
16262;SDS011;8239;48.594;8.598;2023-08-21T12:50:12;5.70;;;5.30;;
16262;SDS011;8239;48.594;8.598;2023-08-21T12:52:39;6.00;;;5.40;;
16262;SDS011;8239;48.594;8.598;2023-08-21T12:55:07;6.35;;;5.72;;
16262;SDS011;8239;48.594;8.598;2023-08-21T12:57:35;6.25;;;5.57;;
16262;SDS011;8239;48.594;8.598;2023-08-21T13:00:02;5.82;;;5.22;;
16262;SDS011;8239;48.594;8.598;2023-08-21T13:02:30;6.47;;;5.28;;
16262;SDS011;8239;48.594;8.598;2023-08-21T13:04:57;6.05;;;5.50;;
16262;SDS011;8239;48.594;8.598;2023-08-21T13:07:24;7.55;;;6.13;;
16262;SDS011;8239;48.594;8.598;2023-08-21T13:09:51;5.82;;;5.32;;
16262;SDS011;8239;48.594;8.598;2023-08-21T13:12:18;6.05;;;5.55;;
16262;SDS011;8239;48.594;8.598;2023-08-21T13:14:47;5.70;;;5.20;;
16262;SDS011;8239;48.594;8.598;2023-08-21T13:17:14;5.90;;;5.50;;
16262;SDS011;8239;48.594;8.598;2023-08-21T13:19:40;5.65;;;5.15;;
16262;SDS011;8239;48.594;8.598;2023-08-21T13:22:07;6.28;;;5.78;;
16262;SDS011;8239;48.594;8.598;2023-08-21T13:24:34;5.65;;;5.13;;
16262;SDS011;8239;48.594;8.598;2023-08-21T13:27:01;6.63;;;5.20;;
16262;SDS011;8239;48.594;8.598;2023-08-21T13:29:31;5.57;;;5.07;;
16262;SDS011;8239;48.594;8.598;2023-08-21T13:32:00;5.82;;;4.93;;
16262;SDS011;8239;48.594;8.598;2023-08-21T13:34:28;5.85;;;5.35;;
16262;SDS011;8239;48.594;8.598;2023-08-21T13:36:55;6.25;;;5.20;;
16262;SDS011;8239;48.594;8.598;2023-08-21T13:39:23;7.13;;;5.32;;
16262;SDS011;8239;48.594;8.598;2023-08-21T13:41:51;5.75;;;5.15;;
16262;SDS011;8239;48.594;8.598;2023-08-21T13:44:18;6.00;;;5.50;;
16262;SDS011;8239;48.594;8.598;2023-08-21T13:46:45;6.10;;;5.55;;
16262;SDS011;8239;48.594;8.598;2023-08-21T13:49:13;5.82;;;5.32;;
16262;SDS011;8239;48.594;8.598;2023-08-21T13:51:40;6.28;;;5.63;;
16262;SDS011;8239;48.594;8.598;2023-08-21T13:54:07;6.22;;;5.68;;
16262;SDS011;8239;48.594;8.598;2023-08-21T13:56:34;5.80;;;5.30;;
16262;SDS011;8239;48.594;8.598;2023-08-21T13:59:01;5.72;;;5.22;;
16262;SDS011;8239;48.594;8.598;2023-08-21T14:01:28;5.82;;;5.35;;
16262;SDS011;8239;48.594;8.598;2023-08-21T14:03:55;6.10;;;5.60;;
16262;SDS011;8239;48.594;8.598;2023-08-21T14:06:23;6.10;;;5.63;;
16262;SDS011;8239;48.594;8.598;2023-08-21T14:08:50;6.07;;;5.60;;
16262;SDS011;8239;48.594;8.598;2023-08-21T14:11:17;6.28;;;5.63;;
16262;SDS011;8239;48.594;8.598;2023-08-21T14:13:44;6.78;;;5.38;;
16262;SDS011;8239;48.594;8.598;2023-08-21T14:16:11;5.88;;;5.38;;
16262;SDS011;8239;48.594;8.598;2023-08-21T14:18:38;6.30;;;5.72;;
16262;SDS011;8239;48.594;8.598;2023-08-21T14:21:05;7.32;;;5.90;;
16262;SDS011;8239;48.594;8.598;2023-08-21T14:23:33;6.00;;;5.45;;
16262;SDS011;8239;48.594;8.598;2023-08-21T14:26:00;5.80;;;5.30;;
16262;SDS011;8239;48.594;8.598;2023-08-21T14:28:27;5.95;;;5.43;;
16262;SDS011;8239;48.594;8.598;2023-08-21T14:30:54;6.05;;;5.55;;
16262;SDS011;8239;48.594;8.598;2023-08-21T14:33:21;6.03;;;5.30;;
16262;SDS011;8239;48.594;8.598;2023-08-21T14:35:49;7.53;;;5.60;;
16262;SDS011;8239;48.594;8.598;2023-08-21T14:38:16;6.57;;;5.32;;
16262;SDS011;8239;48.594;8.598;2023-08-21T14:40:44;5.63;;;5.13;;
16262;SDS011;8239;48.594;8.598;2023-08-21T14:43:11;5.80;;;5.30;;
16262;SDS011;8239;48.594;8.598;2023-08-21T14:45:38;5.95;;;5.30;;
16262;SDS011;8239;48.594;8.598;2023-08-21T14:48:05;6.03;;;5.43;;
16262;SDS011;8239;48.594;8.598;2023-08-21T14:50:32;6.32;;;5.82;;
16262;SDS011;8239;48.594;8.598;2023-08-21T14:52:59;6.20;;;5.60;;
16262;SDS011;8239;48.594;8.598;2023-08-21T14:55:26;6.53;;;5.90;;
16262;SDS011;8239;48.594;8.598;2023-08-21T14:57:54;5.72;;;5.18;;
16262;SDS011;8239;48.594;8.598;2023-08-21T15:00:21;6.05;;;5.55;;
16262;SDS011;8239;48.594;8.598;2023-08-21T15:02:49;6.15;;;5.55;;
16262;SDS011;8239;48.594;8.598;2023-08-21T15:05:15;5.88;;;5.28;;